Time;durP1;ratioP1;P1;durP2;ratioP2;P2;SDS_P1;SDS_P2;PMS_P1;PMS_P2;Temp;Humidity;BMP_temperature;BMP_pressure;BME280_temperature;BME280_humidity;BME280_pressure;Samples;Min_cycle;Max_cycle;Signal;HPM_P1;HPM_P2
2021/01/12 00:01:43;;;;;;;50.17;27.20;;;;;;;0.69;73.57;101118.32;1752161;81;22175;-49
2021/01/12 00:04:11;;;;;;;47.43;25.88;;;;;;;0.67;73.74;101114.91;1759296;81;22734;-49
2021/01/12 00:06:40;;;;;;;49.13;26.77;;;;;;;0.68;74.07;101110.53;1738367;81;21026;-49
2021/01/12 00:09:08;;;;;;;49.13;26.82;;;;;;;0.71;74.20;101118.27;1774068;80;21047;-49
2021/01/12 00:11:37;;;;;;;45.52;25.02;;;;;;;0.69;73.81;101119.62;1730141;81;21554;-49
2021/01/12 00:14:04;;;;;;;50.35;26.52;;;;;;;0.67;73.70;101122.72;1747806;81;21126;-49
2021/01/12 00:16:32;;;;;;;49.15;25.97;;;;;;;0.68;73.97;101124.86;1727763;81;21655;-49
2021/01/12 00:19:00;;;;;;;49.63;26.70;;;;;;;0.70;74.31;101126.98;1744548;80;22085;-48
2021/01/12 00:21:29;;;;;;;52.03;25.75;;;;;;;0.71;74.24;101120.44;1763993;80;22125;-49
2021/01/12 00:23:57;;;;;;;52.45;27.35;;;;;;;0.71;73.82;101124.77;1767101;80;21450;-49
2021/01/12 00:26:24;;;;;;;45.55;25.37;;;;;;;0.66;73.49;101122.31;1746043;80;22060;-49
2021/01/12 00:28:52;;;;;;;49.50;27.05;;;;;;;0.65;73.83;101115.40;1748497;80;21359;-49
2021/01/12 00:31:20;;;;;;;56.92;28.25;;;;;;;0.68;74.16;101114.44;1750910;80;21014;-49
2021/01/12 00:33:47;;;;;;;53.33;27.52;;;;;;;0.71;74.27;101119.56;1764458;80;21110;-49
2021/01/12 00:36:15;;;;;;;55.67;28.70;;;;;;;0.76;74.25;101120.75;1746619;80;21161;-48
2021/01/12 00:38:43;;;;;;;53.42;27.70;;;;;;;0.78;74.12;101115.88;1743556;80;21148;-49
2021/01/12 00:41:10;;;;;;;56.77;29.07;;;;;;;0.81;73.96;101116.25;1744298;80;22036;-49
2021/01/12 00:43:38;;;;;;;56.53;28.45;;;;;;;0.83;73.62;101116.59;1765004;80;21015;-48
2021/01/12 00:46:07;;;;;;;57.95;28.07;;;;;;;0.79;73.15;101116.28;1762615;80;21133;-48
2021/01/12 00:48:35;;;;;;;49.77;27.13;;;;;;;0.70;72.81;101114.81;1726670;82;21931;-49
2021/01/12 00:51:03;;;;;;;52.75;27.25;;;;;;;0.49;72.86;101113.70;1731051;81;21029;-49
2021/01/12 00:53:30;;;;;;;55.08;28.42;;;;;;;0.29;73.34;101116.41;1748419;81;23287;-49
2021/01/12 00:55:58;;;;;;;68.85;31.37;;;;;;;0.19;73.86;101115.37;1688937;82;21046;-49
2021/01/12 00:58:26;;;;;;;86.75;35.08;;;;;;;0.10;74.27;101118.63;1708625;82;20996;-49
2021/01/12 01:00:54;;;;;;;86.92;36.55;;;;;;;0.07;74.67;101114.81;1747763;80;21154;-49
2021/01/12 01:03:21;;;;;;;66.53;27.98;;;;;;;0.02;74.82;101115.37;1730415;80;21955;-49
2021/01/12 01:05:49;;;;;;;67.10;27.52;;;;;;;-0.06;74.74;101116.05;1765793;80;23052;-49
2021/01/12 01:08:17;;;;;;;69.40;29.37;;;;;;;-0.10;74.74;101107.92;1763491;80;21993;-48
2021/01/12 01:10:44;;;;;;;80.05;29.55;;;;;;;-0.12;75.00;101103.20;1729531;82;21542;-49
2021/01/12 01:13:12;;;;;;;71.30;27.20;;;;;;;-0.09;75.15;101107.86;1728268;82;20991;-49
2021/01/12 01:15:40;;;;;;;65.30;27.25;;;;;;;-0.05;75.18;101104.28;1754970;80;21165;-48
2021/01/12 01:18:09;;;;;;;68.70;27.30;;;;;;;-0.10;74.93;101095.74;1734090;80;22867;-49
2021/01/12 01:20:36;;;;;;;62.27;25.97;;;;;;;-0.18;75.27;101095.95;1763250;80;21150;-48
2021/01/12 01:23:04;;;;;;;50.92;24.25;;;;;;;-0.15;75.54;101096.31;1764051;80;22189;-49
2021/01/12 01:25:32;;;;;;;44.95;23.15;;;;;;;-0.13;75.24;101096.28;1750152;80;20996;-48
2021/01/12 01:28:01;;;;;;;43.10;22.17;;;;;;;-0.19;75.03;101094.25;1744787;80;21151;-48
2021/01/12 01:30:28;;;;;;;47.60;22.90;;;;;;;-0.23;75.05;101099.13;1737430;80;21372;-49
2021/01/12 01:32:58;;;;;;;48.08;22.50;;;;;;;-0.20;75.41;101102.08;1741168;80;21229;-49
2021/01/12 01:35:26;;;;;;;43.78;21.73;;;;;;;-0.10;75.42;101106.16;1739801;80;21134;-49
2021/01/12 01:37:56;;;;;;;41.45;22.02;;;;;;;-0.04;74.87;101105.16;1764896;80;21131;-49
2021/01/12 01:40:24;;;;;;;43.38;22.50;;;;;;;0.01;74.86;101103.25;1711986;82;21607;-49
2021/01/12 01:42:51;;;;;;;42.95;22.42;;;;;;;0.08;74.63;101100.06;1754171;81;21551;-49
2021/01/12 01:45:19;;;;;;;48.90;23.38;;;;;;;0.16;74.47;101099.41;1743217;80;21161;-48
2021/01/12 01:47:46;;;;;;;51.13;25.30;;;;;;;0.24;74.63;101101.78;1731491;82;21718;-48
2021/01/12 01:50:19;;;;;;;52.30;26.23;;;;;;;0.29;74.98;101102.52;1776968;79;21983;-48
2021/01/12 01:52:54;;;;;;;48.98;24.95;;;;;;;0.37;75.08;101101.02;1802939;79;20996;-48
2021/01/12 01:55:23;;;;;;;47.00;24.18;;;;;;;0.44;74.94;101094.73;1782786;79;23016;-49
2021/01/12 01:57:51;;;;;;;44.93;23.47;;;;;;;0.48;74.68;101092.45;1781302;78;21009;-49
2021/01/12 02:00:21;;;;;;;50.03;25.17;;;;;;;0.47;73.83;101095.08;1777201;79;20987;-48
2021/01/12 02:03:15;;;;;;;52.35;26.57;;;;;;;0.35;73.71;101093.69;1771350;79;20991;-48
2021/01/12 02:05:58;;;;;;;51.35;26.37;;;;;;;0.25;73.68;101089.17;1771811;79;21578;-49
2021/01/12 02:08:30;;;;;;;48.85;23.67;;;;;;;0.09;73.81;101086.98;1794802;79;21407;-49
2021/01/12 02:11:01;;;;;;;47.83;24.05;;;;;;;-0.02;73.83;101079.94;1787168;79;22048;-48
2021/01/12 02:13:29;;;;;;;72.80;28.42;;;;;;;-0.15;74.06;101085.91;1781037;79;22125;-48
2021/01/12 02:16:00;;;;;;;93.60;31.12;;;;;;;-0.23;74.51;101083.52;1803521;79;21958;-49
2021/01/12 02:18:32;;;;;;;86.23;28.70;;;;;;;-0.20;74.77;101078.66;1781237;79;21874;-49
2021/01/12 02:21:02;;;;;;;77.58;28.90;;;;;;;-0.20;74.77;101078.66;1790215;79;21505;-49
2021/01/12 02:23:49;;;;;;;81.47;28.02;;;;;;;-0.22;74.43;101075.24;1795206;79;21970;-50
2021/01/12 02:26:17;;;;;;;66.35;25.52;;;;;;;-0.27;74.45;101076.68;1803033;79;20995;-49
2021/01/12 02:28:45;;;;;;;77.85;26.35;;;;;;;-0.30;74.40;101073.70;1772401;78;21150;-49
2021/01/12 02:31:12;;;;;;;102.17;32.45;;;;;;;-0.33;74.28;101069.03;1771223;79;20982;-49
2021/01/12 02:33:40;;;;;;;104.95;35.00;;;;;;;-0.36;74.12;101068.64;1794398;79;21203;-50
2021/01/12 02:36:10;;;;;;;74.07;28.00;;;;;;;-0.35;74.42;101070.81;1792063;79;22384;-50
2021/01/12 02:38:37;;;;;;;59.70;26.37;;;;;;;-0.29;74.41;101070.66;1771645;79;20964;-50
2021/01/12 02:41:14;;;;;;;56.65;26.25;;;;;;;-0.21;74.41;101070.02;1774887;79;20955;-49
2021/01/12 02:43:42;;;;;;;56.00;25.80;;;;;;;-0.11;74.46;101070.61;1804345;79;20995;-49
2021/01/12 02:46:11;;;;;;;58.78;26.35;;;;;;;-0.01;74.64;101065.57;1803973;79;21837;-48
2021/01/12 02:48:38;;;;;;;55.40;25.02;;;;;;;0.09;74.77;101068.77;1802967;79;20968;-49
2021/01/12 02:51:06;;;;;;;52.67;25.75;;;;;;;0.18;74.56;101057.69;1802809;79;20995;-49
2021/01/12 02:53:34;;;;;;;51.90;25.68;;;;;;;0.20;74.10;101056.77;1781246;79;20936;-48
2021/01/12 02:56:02;;;;;;;53.40;26.48;;;;;;;0.17;74.07;101055.55;1803145;79;22065;-49
2021/01/12 02:58:30;;;;;;;48.85;24.27;;;;;;;0.16;74.12;101051.23;1803475;79;21407;-48
2021/01/12 03:00:58;;;;;;;47.62;23.20;;;;;;;0.10;73.61;101046.20;1786264;79;21060;-49
2021/01/12 03:03:26;;;;;;;47.03;23.22;;;;;;;-0.08;73.47;101046.27;1733571;82;22086;-49
2021/01/12 03:05:54;;;;;;;41.40;19.45;;;;;;;-0.21;73.40;101049.63;1733740;82;21142;-49
2021/01/12 03:08:22;;;;;;;41.42;20.92;;;;;;;-0.30;73.35;101046.38;1729528;80;20997;-49
2021/01/12 03:10:50;;;;;;;38.38;19.75;;;;;;;-0.38;73.50;101048.32;1803445;79;21194;-49
2021/01/12 03:13:17;;;;;;;38.28;21.02;;;;;;;-0.35;73.69;101039.59;1803753;79;20960;-49
2021/01/12 03:15:45;;;;;;;41.73;22.00;;;;;;;-0.28;73.57;101035.08;1792166;79;21090;-48
2021/01/12 03:18:13;;;;;;;42.98;22.40;;;;;;;-0.18;73.83;101041.31;1792530;79;21002;-49
2021/01/12 03:20:40;;;;;;;42.78;22.60;;;;;;;-0.09;73.65;101041.50;1771626;78;21131;-49
2021/01/12 03:23:08;;;;;;;44.05;21.33;;;;;;;-0.05;73.19;101037.08;1771349;79;21197;-49
2021/01/12 03:25:36;;;;;;;41.88;21.35;;;;;;;-0.12;72.90;101030.34;1793682;79;21931;-49
2021/01/12 03:28:06;;;;;;;41.60;21.40;;;;;;;-0.14;73.10;101026.92;1787980;79;20967;-49
2021/01/12 03:30:34;;;;;;;42.25;20.92;;;;;;;-0.22;72.85;101029.28;1798501;79;22004;-48
2021/01/12 03:33:01;;;;;;;44.40;22.77;;;;;;;-0.30;72.93;101021.66;1785971;79;21150;-49
2021/01/12 03:35:30;;;;;;;36.75;19.75;;;;;;;-0.32;73.05;101022.61;1780687;78;21126;-48
2021/01/12 03:37:58;;;;;;;44.42;21.55;;;;;;;-0.27;73.09;101014.67;1803219;79;20996;-49
2021/01/12 03:40:26;;;;;;;41.68;21.12;;;;;;;-0.29;72.83;101013.42;1803221;79;20971;-49
2021/01/12 03:42:54;;;;;;;40.17;20.80;;;;;;;-0.30;72.54;101011.72;1772180;79;21142;-49
2021/01/12 03:45:22;;;;;;;37.65;20.82;;;;;;;-0.30;72.18;101002.61;1803139;79;21122;-48
2021/01/12 03:47:50;;;;;;;37.75;19.52;;;;;;;-0.28;71.92;101002.13;1803189;79;21584;-48
2021/01/12 03:50:17;;;;;;;41.23;20.52;;;;;;;-0.29;71.74;100997.81;1791377;79;22058;-48
2021/01/12 03:52:45;;;;;;;38.92;20.00;;;;;;;-0.29;71.68;100995.22;1771391;79;21101;-49
2021/01/12 03:55:13;;;;;;;41.00;20.97;;;;;;;-0.25;71.46;100994.67;1780592;79;21110;-48
2021/01/12 03:57:40;;;;;;;40.58;19.87;;;;;;;-0.26;70.85;100988.63;1783888;79;21985;-49
2021/01/12 04:00:09;;;;;;;33.08;15.95;;;;;;;-0.24;70.56;100988.14;1777404;79;21442;-48
2021/01/12 04:02:40;;;;;;;40.90;22.60;;;;;;;-0.24;70.10;100988.14;1772860;79;21534;-49
2021/01/12 04:05:09;;;;;;;36.48;19.17;;;;;;;-0.25;70.12;100988.16;1799206;79;21110;-49
2021/01/12 04:07:37;;;;;;;35.75;18.40;;;;;;;-0.21;70.12;100993.69;1787043;79;21149;-48
2021/01/12 04:10:06;;;;;;;36.68;19.12;;;;;;;-0.17;69.75;100993.58;1774869;79;21117;-48
2021/01/12 04:12:34;;;;;;;38.08;18.32;;;;;;;-0.14;69.60;100989.19;1788829;79;21289;-49
2021/01/12 04:15:04;;;;;;;40.05;18.32;;;;;;;-0.10;69.33;100985.61;1795246;79;21015;-49
2021/01/12 04:17:32;;;;;;;36.05;18.35;;;;;;;-0.08;69.26;100983.34;1790691;78;21578;-49
2021/01/12 04:20:00;;;;;;;33.33;18.62;;;;;;;-0.07;68.65;100982.45;1803261;79;22228;-49
2021/01/12 04:22:28;;;;;;;37.10;20.17;;;;;;;-0.09;68.53;100984.71;1765111;80;21150;-49
2021/01/12 04:24:57;;;;;;;34.98;17.65;;;;;;;-0.14;68.25;100978.31;1726572;82;21309;-48
2021/01/12 04:27:24;;;;;;;32.40;17.90;;;;;;;-0.14;67.83;100978.31;1751817;80;21133;-49
2021/01/12 04:29:52;;;;;;;35.13;19.23;;;;;;;-0.16;67.68;100974.47;1788071;79;21633;-49
2021/01/12 04:32:20;;;;;;;30.85;18.20;;;;;;;-0.12;67.56;100972.63;1803522;79;22125;-49
2021/01/12 04:34:47;;;;;;;36.10;18.82;;;;;;;-0.11;67.45;100980.83;1790697;79;21123;-48
2021/01/12 04:37:15;;;;;;;39.92;19.02;;;;;;;-0.12;67.70;100974.39;1760428;79;21143;-48
2021/01/12 04:39:42;;;;;;;38.15;18.73;;;;;;;-0.15;67.91;100967.50;1766826;78;21146;-49
2021/01/12 04:42:10;;;;;;;37.33;18.50;;;;;;;-0.13;68.00;100969.61;1776945;79;21008;-49
2021/01/12 04:44:38;;;;;;;32.45;18.77;;;;;;;-0.16;68.21;100975.77;1756140;81;21766;-49
2021/01/12 04:47:06;;;;;;;33.60;18.70;;;;;;;-0.19;68.37;100973.25;1715914;82;21449;-48
2021/01/12 04:49:34;;;;;;;34.55;18.12;;;;;;;-0.24;68.25;100969.92;1706872;82;21284;-48
2021/01/12 04:52:02;;;;;;;29.23;15.63;;;;;;;-0.24;68.57;100967.75;1755683;81;21136;-49
2021/01/12 04:54:34;;;;;;;35.45;19.05;;;;;;;-0.23;68.71;100967.73;1745841;81;21134;-49
2021/01/12 04:57:02;;;;;;;36.30;19.32;;;;;;;-0.26;69.10;100962.61;1701752;82;21176;-49
2021/01/12 04:59:34;;;;;;;41.30;17.48;;;;;;;-0.32;69.60;100954.97;1707157;82;21158;-48
2021/01/12 05:02:02;;;;;;;37.78;19.62;;;;;;;-0.33;70.02;100957.17;1705319;82;21219;-49
2021/01/12 05:04:34;;;;;;;35.63;18.70;;;;;;;-0.37;69.89;100954.25;1704222;82;21635;-49
2021/01/12 05:07:06;;;;;;;35.03;17.87;;;;;;;-0.41;70.02;100952.63;1680404;83;21164;-49
2021/01/12 05:09:33;;;;;;;30.23;15.65;;;;;;;-0.44;68.74;100948.34;1764395;79;21142;-49
2021/01/12 05:12:01;;;;;;;31.17;16.32;;;;;;;-0.47;68.65;100953.20;1780791;79;21109;-49
2021/01/12 05:14:29;;;;;;;32.90;17.75;;;;;;;-0.49;68.95;100956.72;1753347;79;22117;-48
2021/01/12 05:16:57;;;;;;;28.40;15.93;;;;;;;-0.48;68.77;100957.98;1757606;79;21036;-48
2021/01/12 05:19:28;;;;;;;31.42;17.07;;;;;;;-0.47;68.94;100962.73;1743704;80;21181;-49
2021/01/12 05:22:03;;;;;;;31.48;16.55;;;;;;;-0.49;69.29;100956.28;1765841;79;21630;-47
2021/01/12 05:24:41;;;;;;;35.08;18.95;;;;;;;-0.49;69.63;100955.41;1760494;79;21104;-48
2021/01/12 05:27:10;;;;;;;38.48;19.15;;;;;;;-0.49;69.97;100961.48;1761318;79;21178;-48
2021/01/12 05:29:39;;;;;;;33.53;17.70;;;;;;;-0.51;70.26;100958.07;1770610;79;21138;-48
2021/01/12 05:32:10;;;;;;;38.58;19.70;;;;;;;-0.55;70.61;100955.15;1759005;80;21136;-49
2021/01/12 05:34:40;;;;;;;40.38;18.90;;;;;;;-0.56;71.16;100950.00;1797938;79;21146;-49
2021/01/12 05:37:09;;;;;;;39.27;20.50;;;;;;;-0.55;71.56;100955.15;1770833;79;21163;-49
2021/01/12 05:39:39;;;;;;;38.13;20.12;;;;;;;-0.53;71.84;100947.32;1736297;80;22716;-48
2021/01/12 05:42:11;;;;;;;37.33;20.32;;;;;;;-0.53;72.06;100953.36;1738264;81;21600;-48
2021/01/12 05:44:40;;;;;;;42.23;20.52;;;;;;;-0.54;72.20;100949.05;1755300;80;21805;-49
2021/01/12 05:47:16;;;;;;;40.12;19.75;;;;;;;-0.55;72.38;100956.45;1760690;80;21112;-49
2021/01/12 05:49:44;;;;;;;36.23;19.32;;;;;;;-0.56;72.60;100954.73;1761261;79;22259;-48
2021/01/12 05:52:12;;;;;;;38.13;20.92;;;;;;;-0.59;72.72;100961.32;1760893;79;21357;-49
2021/01/12 05:54:40;;;;;;;34.15;18.98;;;;;;;-0.62;72.97;100953.17;1718681;80;21024;-48
2021/01/12 05:57:08;;;;;;;38.70;20.25;;;;;;;-0.61;73.20;100959.20;1743916;80;21135;-49
2021/01/12 05:59:37;;;;;;;39.33;20.23;;;;;;;-0.60;73.14;100960.91;1765783;79;21122;-49
2021/01/12 06:02:19;;;;;;;41.58;21.50;;;;;;;-0.59;73.16;100963.92;1750157;79;22131;-49
2021/01/12 06:04:46;;;;;;;37.75;19.82;;;;;;;-0.60;73.47;100963.52;1760419;79;23030;-49
2021/01/12 06:07:15;;;;;;;37.33;20.23;;;;;;;-0.61;73.81;100963.11;1760931;80;21641;-49
2021/01/12 06:09:43;;;;;;;43.50;21.50;;;;;;;-0.58;73.88;100968.69;1744411;80;21139;-49
2021/01/12 06:12:11;;;;;;;40.78;21.07;;;;;;;-0.58;74.08;100974.73;1763889;79;21126;-49
2021/01/12 06:14:39;;;;;;;42.48;21.17;;;;;;;-0.59;74.32;100976.92;1760536;79;21807;-49
2021/01/12 06:17:09;;;;;;;44.93;22.73;;;;;;;-0.62;74.57;100975.27;1730763;81;21163;-48
2021/01/12 06:19:41;;;;;;;42.17;22.62;;;;;;;-0.63;74.92;100974.00;1737844;79;21005;-49
2021/01/12 06:22:23;;;;;;;45.38;21.73;;;;;;;-0.63;75.37;100979.20;1755462;79;21122;-49
2021/01/12 06:25:03;;;;;;;44.60;22.83;;;;;;;-0.67;75.76;100977.14;1770978;79;21134;-49
2021/01/12 06:27:32;;;;;;;41.35;22.15;;;;;;;-0.72;76.32;100976.83;1781435;79;21130;-49
2021/01/12 06:30:05;;;;;;;49.95;24.32;;;;;;;-0.74;76.76;100972.98;1781909;79;22700;-49
2021/01/12 06:32:39;;;;;;;44.40;24.35;;;;;;;-0.69;77.09;100971.12;1839339;76;22742;-48
2021/01/12 06:35:10;;;;;;;41.25;21.95;;;;;;;-0.75;77.30;100979.08;1810525;77;21480;-48
2021/01/12 06:37:40;;;;;;;45.17;23.80;;;;;;;-0.75;77.60;100976.48;1809975;77;23462;-50
2021/01/12 06:40:10;;;;;;;42.35;23.15;;;;;;;-0.76;77.77;100969.11;1813294;77;21593;-48
2021/01/12 06:42:38;;;;;;;44.73;24.23;;;;;;;-0.73;77.95;100968.63;1811364;77;20999;-48
2021/01/12 06:45:08;;;;;;;47.23;24.82;;;;;;;-0.72;78.05;100966.43;1812935;77;21949;-48
2021/01/12 06:47:36;;;;;;;48.87;23.57;;;;;;;-0.68;78.12;100964.16;1810536;77;20986;-48
2021/01/12 06:50:14;;;;;;;48.23;24.80;;;;;;;-0.67;78.14;100964.14;1820520;77;21653;-49
2021/01/12 06:52:47;;;;;;;43.45;24.12;;;;;;;-0.66;78.19;100965.84;1810979;77;20978;-49
2021/01/12 06:55:20;;;;;;;44.40;22.35;;;;;;;-0.65;78.28;100961.48;1819608;77;20974;-48
2021/01/12 06:57:54;;;;;;;47.25;23.22;;;;;;;-0.63;78.27;100955.80;1812292;77;20982;-49
2021/01/12 07:00:23;;;;;;;42.08;22.82;;;;;;;-0.64;78.22;100956.69;1821480;77;22180;-49
2021/01/12 07:02:57;;;;;;;42.38;22.45;;;;;;;-0.66;78.08;100955.87;1809984;77;21097;-49
2021/01/12 07:05:42;;;;;;;48.95;23.47;;;;;;;-0.67;77.96;100950.27;1811466;77;22495;-49
2021/01/12 07:08:10;;;;;;;39.53;20.10;;;;;;;-0.65;78.03;100951.08;1821504;77;20970;-49
2021/01/12 07:10:46;;;;;;;38.53;18.80;;;;;;;-0.62;77.72;100953.17;1816009;77;21137;-49
2021/01/12 07:13:14;;;;;;;38.30;19.87;;;;;;;-0.62;77.17;100951.00;1810246;77;20967;-50
2021/01/12 07:27:28;;;;;;;34.25;19.23;;;;;;;-0.12;74.20;100948.36;1784141;78;24011;-49
2021/01/12 07:29:55;;;;;;;34.30;18.10;;;;;;;-0.19;73.87;100942.46;1708661;81;21892;-49
2021/01/12 07:32:26;;;;;;;37.00;18.00;;;;;;;-0.26;73.48;100937.89;1730076;82;21384;-49
2021/01/12 07:35:00;;;;;;;35.47;17.90;;;;;;;-0.34;73.05;100938.55;1718592;81;21356;-49
2021/01/12 07:37:40;;;;;;;33.40;16.80;;;;;;;-0.40;73.51;100938.72;1867357;74;22423;-48
2021/01/12 07:40:13;;;;;;;33.05;16.20;;;;;;;-0.47;73.22;100933.69;1819574;77;20995;-48
2021/01/12 07:42:57;;;;;;;;;;;;;;;-0.55;72.78;100936.11;1846783;76;22921;-49
2021/01/12 07:45:31;;;;;;;35.83;16.67;;;;;;;-0.63;73.07;100937.59;1829669;76;21053;-49
2021/01/12 07:47:59;;;;;;;29.75;15.63;;;;;;;-0.70;73.40;100936.92;1835374;77;21963;-48
2021/01/12 07:50:29;;;;;;;31.62;15.48;;;;;;;-0.73;73.61;100937.43;1825407;77;20939;-48
2021/01/12 07:52:57;;;;;;;32.67;16.77;;;;;;;-0.75;73.95;100937.02;1842518;77;21734;-49
2021/01/12 07:55:25;;;;;;;32.33;15.80;;;;;;;-0.76;74.00;100935.31;1840641;75;22853;-49
2021/01/12 07:57:53;;;;;;;28.45;14.73;;;;;;;-0.77;74.15;100932.31;1837451;75;20993;-49
2021/01/12 08:00:22;;;;;;;30.55;16.77;;;;;;;-0.75;74.13;100935.72;1839032;77;20990;-49
2021/01/12 08:02:52;;;;;;;35.28;17.55;;;;;;;-0.75;73.99;100942.22;1844692;77;20987;-49
2021/01/12 08:05:26;;;;;;;36.13;16.90;;;;;;;-0.74;74.23;100930.09;1829822;77;20999;-49
2021/01/12 08:08:06;;;;;;;35.00;16.25;;;;;;;-0.71;74.53;100935.64;1840245;77;21253;-49
2021/01/12 08:10:36;;;;;;;36.15;16.57;;;;;;;-0.68;74.23;100929.06;1836364;77;21742;-48
2021/01/12 08:13:12;;;;;;;34.13;15.60;;;;;;;-0.68;74.32;100932.96;1836221;77;20990;-48
2021/01/12 08:15:43;;;;;;;33.30;16.48;;;;;;;-0.69;74.38;100932.55;1834879;77;21137;-49
2021/01/12 08:18:18;;;;;;;33.83;17.20;;;;;;;-0.70;74.55;100936.92;1769961;80;21019;-49
2021/01/12 08:20:46;;;;;;;34.30;15.83;;;;;;;-0.66;74.73;100926.84;1763339;79;21436;-49
2021/01/12 08:23:18;;;;;;;33.08;15.98;;;;;;;-0.63;74.77;100936.30;1771391;79;20988;-50
2021/01/12 08:25:46;;;;;;;28.67;14.15;;;;;;;-0.60;73.89;100930.58;1771952;79;21149;-50
2021/01/12 08:28:14;;;;;;;32.03;16.20;;;;;;;-0.63;73.54;100929.36;1775851;80;22045;-50
2021/01/12 08:30:44;;;;;;;32.00;16.48;;;;;;;-0.67;73.98;100935.97;1770358;79;21019;-50
2021/01/12 08:33:32;;;;;;;28.23;14.68;;;;;;;-0.65;73.63;100934.18;1769709;79;21199;-49
2021/01/12 08:36:08;;;;;;;28.55;15.32;;;;;;;-0.67;73.51;100933.37;1764006;79;21178;-49
2021/01/12 08:38:38;;;;;;;26.90;13.78;;;;;;;-0.71;73.69;100941.71;1729826;81;21126;-49
2021/01/12 08:41:06;;;;;;;30.80;14.87;;;;;;;-0.70;73.91;100931.72;1693837;82;21171;-49
2021/01/12 08:43:33;;;;;;;29.67;16.32;;;;;;;-0.71;73.97;100931.73;1724698;81;21114;-49
2021/01/12 08:46:02;;;;;;;29.18;15.23;;;;;;;-0.72;74.18;100928.30;1691790;82;22945;-49
2021/01/12 09:10:25;;;;;;;27.32;14.13;;;;;;;-0.46;72.68;100904.62;1850310;76;22780;-49
2021/01/12 09:12:54;;;;;;;25.88;14.20;;;;;;;-0.55;71.71;100908.80;1807841;77;20967;-49
2021/01/12 09:15:35;;;;;;;25.37;14.38;;;;;;;-0.68;72.21;100903.93;1808434;77;21191;-49
2021/01/12 09:18:07;;;;;;;24.77;13.60;;;;;;;-0.71;72.71;100900.11;1809310;77;21572;-49
2021/01/12 09:20:38;;;;;;;25.68;14.70;;;;;;;-0.70;73.13;100891.85;1792389;79;21936;-49
2021/01/12 09:23:09;;;;;;;36.25;15.48;;;;;;;-0.65;73.50;100889.98;1752173;80;20975;-49
2021/01/12 09:25:41;;;;;;;32.30;15.70;;;;;;;-0.57;73.46;100893.22;1772171;80;20970;-49
2021/01/12 09:28:12;;;;;;;37.95;16.73;;;;;;;-0.54;73.52;100892.30;1719014;81;22165;-49
2021/01/12 09:30:46;;;;;;;31.10;17.20;;;;;;;-0.53;73.60;100891.41;1743576;81;21002;-49
2021/01/12 09:33:24;;;;;;;32.60;15.93;;;;;;;-0.52;73.57;100892.65;1749889;80;21007;-49
2021/01/12 09:36:07;;;;;;;28.60;15.55;;;;;;;-0.53;73.73;100889.64;1748824;80;21136;-48
2021/01/12 09:38:52;;;;;;;28.60;16.05;;;;;;;-0.50;73.78;100885.66;1759020;80;21579;-49
2021/01/12 09:41:28;;;;;;;34.83;17.27;;;;;;;-0.50;74.17;100880.45;1746084;80;21416;-49
2021/01/12 09:43:55;;;;;;;30.35;16.60;;;;;;;-0.50;73.58;100879.16;1749549;80;21029;-49
2021/01/12 09:46:24;;;;;;;31.48;16.02;;;;;;;-0.54;73.50;100878.84;1771219;79;21132;-49
2021/01/12 09:48:53;;;;;;;30.80;14.55;;;;;;;-0.54;73.36;100876.23;1752961;80;21993;-49
2021/01/12 09:51:21;;;;;;;33.53;16.40;;;;;;;-0.55;72.86;100866.73;1754337;80;21136;-49
2021/01/12 09:53:49;;;;;;;30.75;15.80;;;;;;;-0.65;72.82;100857.05;1765217;80;21749;-49
2021/01/12 09:56:18;;;;;;;28.20;15.10;;;;;;;-0.68;72.97;100840.67;1747255;80;20991;-48
2021/01/12 09:58:48;;;;;;;26.02;13.88;;;;;;;-0.70;72.91;100842.45;1756951;80;21148;-48
2021/01/12 10:01:21;;;;;;;24.18;14.03;;;;;;;-0.71;73.11;100840.75;1737901;81;21163;-48
2021/01/12 10:03:51;;;;;;;26.42;14.73;;;;;;;-0.69;72.76;100835.06;1717140;81;21142;-48
2021/01/12 10:06:22;;;;;;;30.77;14.90;;;;;;;-0.72;72.62;100831.25;1730982;81;21199;-48
2021/01/12 10:08:49;;;;;;;25.90;14.90;;;;;;;-0.70;72.30;100826.86;1737256;80;21195;-48
2021/01/12 10:11:20;;;;;;;26.00;14.93;;;;;;;-0.70;72.18;100819.92;1726413;81;21018;-48
2021/01/12 10:13:47;;;;;;;30.15;15.48;;;;;;;-0.70;72.69;100818.62;1745693;81;21157;-48
2021/01/12 10:16:24;;;;;;;29.48;15.68;;;;;;;-0.69;72.33;100807.33;1744311;81;22034;-48
2021/01/12 10:18:55;;;;;;;25.35;14.47;;;;;;;-0.70;72.43;100799.13;1744425;81;22164;-48
2021/01/12 10:21:22;;;;;;;27.55;14.63;;;;;;;-0.69;71.95;100790.44;1743695;81;21676;-48
2021/01/12 10:23:50;;;;;;;27.20;13.58;;;;;;;-0.68;72.11;100789.97;1739520;81;21142;-49
2021/01/12 10:26:19;;;;;;;30.70;16.17;;;;;;;-0.70;72.13;100785.27;1735580;81;21167;-48
2021/01/12 10:28:50;;;;;;;29.75;15.20;;;;;;;-0.70;72.12;100780.93;1716699;81;21155;-48
2021/01/12 10:31:22;;;;;;;25.60;14.25;;;;;;;-0.69;71.86;100777.87;1734349;81;21187;-48
2021/01/12 10:33:50;;;;;;;24.32;14.43;;;;;;;-0.71;71.44;100777.06;1733577;81;21165;-48
2021/01/12 10:36:22;;;;;;;28.35;13.68;;;;;;;-0.73;71.18;100768.02;1737262;81;21016;-48
2021/01/12 10:38:50;;;;;;;23.67;12.45;;;;;;;-0.75;70.71;100764.15;1724439;81;21161;-48
2021/01/12 10:41:18;;;;;;;29.40;14.63;;;;;;;-0.73;70.28;100755.45;1736177;81;21203;-47
2021/01/12 10:43:49;;;;;;;26.25;12.50;;;;;;;-0.68;70.78;100756.17;1731397;81;21688;-48
2021/01/12 10:46:18;;;;;;;23.67;12.35;;;;;;;-0.72;70.33;100750.66;1737654;81;21196;-47
2021/01/12 10:48:49;;;;;;;23.27;12.63;;;;;;;-0.71;70.33;100751.06;1738034;81;21225;-48
2021/01/12 10:51:19;;;;;;;24.80;12.90;;;;;;;-0.73;70.33;100751.55;1736755;81;21201;-47
2021/01/12 10:53:47;;;;;;;28.20;14.47;;;;;;;-0.80;70.18;100735.30;1721174;81;21186;-48
2021/01/12 10:56:16;;;;;;;27.22;13.13;;;;;;;-0.79;70.68;100732.64;1738179;81;21189;-48
2021/01/12 10:58:44;;;;;;;26.80;13.90;;;;;;;-0.72;70.86;100732.46;1711300;81;21225;-48
2021/01/12 11:01:21;;;;;;;25.35;13.28;;;;;;;-0.64;70.38;100727.45;1733175;81;21237;-47
2021/01/12 11:03:49;;;;;;;28.98;14.63;;;;;;;-0.60;70.32;100721.27;1743327;81;20995;-47
2021/01/12 11:06:19;;;;;;;25.80;14.25;;;;;;;-0.56;70.38;100720.70;1743051;81;20975;-48
2021/01/12 11:08:49;;;;;;;30.27;14.98;;;;;;;-0.48;70.39;100726.95;1742780;81;21806;-48
2021/01/12 11:11:21;;;;;;;22.70;11.23;;;;;;;-0.46;70.47;100727.33;1711270;83;21689;-48
2021/01/12 11:13:51;;;;;;;26.45;14.65;;;;;;;-0.46;69.90;100729.06;1735120;81;22148;-48
2021/01/12 11:16:20;;;;;;;27.37;13.90;;;;;;;-0.50;69.96;100727.02;1723028;81;21114;-48
2021/01/12 11:18:49;;;;;;;26.23;13.53;;;;;;;-0.53;69.22;100728.42;1749197;81;22128;-49
2021/01/12 11:21:17;;;;;;;30.20;15.50;;;;;;;-0.59;69.32;100718.20;1743090;81;21405;-49
2021/01/12 11:23:45;;;;;;;26.15;13.80;;;;;;;-0.62;69.47;100723.49;1742993;81;21002;-49
2021/01/12 11:26:14;;;;;;;25.30;13.60;;;;;;;-0.62;69.95;100721.77;1756027;81;20951;-48
2021/01/12 11:28:41;;;;;;;29.87;14.85;;;;;;;-0.63;69.89;100716.59;1743007;81;21003;-48
2021/01/12 11:31:10;;;;;;;27.70;13.85;;;;;;;-0.62;69.87;100719.16;1743143;81;21113;-49
2021/01/12 11:33:38;;;;;;;30.68;15.58;;;;;;;-0.65;69.77;100714.05;1743056;81;21200;-50
2021/01/12 11:36:07;;;;;;;33.67;15.55;;;;;;;-0.67;69.96;100714.98;1743101;81;21156;-49
2021/01/12 11:38:36;;;;;;;29.40;14.87;;;;;;;-0.67;70.36;100714.98;1742784;81;21125;-49
2021/01/12 11:41:09;;;;;;;30.68;15.88;;;;;;;-0.69;70.36;100711.58;1743198;81;22144;-49
2021/01/12 11:43:38;;;;;;;33.60;15.72;;;;;;;-0.69;70.76;100709.84;1717329;81;21699;-49
2021/01/12 11:46:06;;;;;;;33.48;16.30;;;;;;;-0.66;70.54;100708.88;1743562;81;22592;-48
2021/01/12 11:48:34;;;;;;;34.88;16.65;;;;;;;-0.65;70.69;100705.39;1748911;81;20976;-48
2021/01/12 11:51:03;;;;;;;34.05;16.77;;;;;;;-0.67;70.49;100700.25;1749616;81;20998;-48
2021/01/12 11:53:30;;;;;;;39.35;15.55;;;;;;;-0.70;70.49;100696.44;1738454;81;20997;-47
2021/01/12 11:55:59;;;;;;;33.85;17.37;;;;;;;-0.73;70.00;100696.53;1743449;81;22051;-47
2021/01/12 11:58:26;;;;;;;29.82;15.35;;;;;;;-0.79;69.82;100679.36;1738094;81;21644;-48